Portada
METAR-TAF:

METAR-TAF

Aeropuertos :

Avilés, España

Aeropuerto de Asturias

latitud: 43-33N, longitud: 006-02W, altitud: 127 m

Observación

El informe se hizo hace 23 minutos, a las 11:00 UTC
Viento 2 kt con dirección variable
Temperatura 18°C
Humedad 68%
Presión 1011 hPa
Visibilidad 10 km o más
Escasas nubes a una altura de 7000 ft

METAR: LEAS 231100Z VRB02KT 9999 FEW070 18/12 Q1011 NOSIG

Hora: 12:23 (11:23 UTC)

Pronóstico

El informe se hizo hace 3 horas y 23 minutos, a las 08:00 UTC
Pronóstico válido del 23 a las 09 UTC al 24 a las 09 UTC
Viento 5 kt con dirección variable
Visibilidad 10 km o más
Escasas nubes a una altura de 6000 ft
Temporalmente
del 24 a las 00 UTC al 24 a las 09 UTC
Viento 10 kt del oeste
Visibilidad: 3000 m
Cielo nuboso a una altura de 500 ft
Cielo nuboso a una altura de 1000 ft
lluvia ligera

TAF: LEAS 230800Z 2309/2409 VRB05KT 9999 FEW060 TX22/2315Z TN10/2406Z TEMPO 2400/2409 28010KT 3000 -RA BKN005 BKN010

Observaciones y pronósticos meteorológicos de más de 4000 aeropuertos (mensajes METAR y TAF).

Los puntos amarillos y rojos representan las estaciones disponibles.

Ponga el ratón en el punto deseado para ver el nombre de la estación.

Haga clic para ver las observaciones y los pronósticos meteorológicos.

Para cambiar el mapa : haga clic en los botones verdes con una cruz de color negro para hacer un zoom, en el botón verde con un guión para alejar o en las flechas verdes para mapas adyacentes.


METAR-TAF: